Main page
METAR-TAF:

METAR-TAF

Airports :

Gorna Oryahovitsa Airport

Veliko Tarnovo, Bulgaria

latitude: 43-09N, longitude: 025-36E, elevation: 87 m

Current weather observation

The report was made 24 minutes ago, at 20:00 UTC
Wind 1 kt from the West
Temperature 5°C
Humidity 93%
Pressure 1022 hPa
Visibility 10 km or more

METAR: LBGO 282000Z AUTO 28001KT 9999 NCD 05/04 Q1022 NOSIG

Time: 22:24 (20:24 UTC)

Forecast

The report was made 3 hours and 24 minutes ago, at 17:00 UTC
Forecast valid from 28 at 18 UTC to 29 at 18 UTC
Wind 8 kt from the West
Visibility 10 km or more
no clouds below 1500 m and no cumulonimbus
Becoming
from 28 at 18 UTC to 28 at 20 UTC
Wind 10 kt from the South
Becoming
from 29 at 05 UTC to 29 at 07 UTC
Wind 4 kt from variable directions
Becoming
from 29 at 11 UTC to 29 at 13 UTC
Wind 10 kt from the South

TAF: LBGO 281700Z 2818/2918 26008KT CAVOK BECMG 2818/2820 17010KT BECMG 2905/2907 VRB04KT BECMG 2911/2913 17010KT

Weather observations and forecasts of more than 4000 airports (METAR and TAF reports).

The available stations are represented by yellow and red dots on the map.

Hover mouse over dot to see the name of the station.

Then click to see weather observations and forecasts.

To change the map : click on the green buttons with a black cross to zoom in, on the green button with a dash to zoom out, or on the green arrows for adjacent maps.


METAR-TAF: